Time;durP1;ratioP1;P1;durP2;ratioP2;P2;SDS_P1;SDS_P2;PMS_P1;PMS_P2;Temp;Humidity;BMP_temperature;BMP_pressure;BME280_temperature;BME280_humidity;BME280_pressure;Samples;Min_cycle;Max_cycle;Signal;HPM_P1;HPM_P2
2023/03/21 00:00:47;;;;;;;11.73;3.83;;;9.80;99.90;;;;;;5097917;28;20182;-82
2023/03/21 00:03:13;;;;;;;6.30;3.60;;;9.80;99.90;;;;;;5097828;28;20171;-82
2023/03/21 00:05:48;;;;;;;15.03;4.20;;;9.70;99.90;;;;;;5079933;28;20579;-81
2023/03/21 00:08:14;;;;;;;22.93;3.87;;;9.70;99.90;;;;;;5097960;28;20162;-82
2023/03/21 00:10:40;;;;;;;8.47;3.53;;;9.70;99.90;;;;;;5079413;28;20202;-82
2023/03/21 00:13:05;;;;;;;7.77;3.97;;;9.80;99.90;;;;;;5079119;28;20205;-82
2023/03/21 00:15:31;;;;;;;9.30;3.63;;;9.70;99.90;;;;;;5079272;28;20205;-81
2023/03/21 00:18:02;;;;;;;7.00;3.37;;;9.80;99.90;;;;;;5079543;28;20214;-82
2023/03/21 00:20:33;;;;;;;11.23;3.83;;;9.80;99.90;;;;;;5079989;28;20612;-82
2023/03/21 00:22:59;;;;;;;10.33;3.83;;;9.70;99.90;;;;;;5097197;28;20654;-82
2023/03/21 00:25:24;;;;;;;10.03;3.60;;;9.70;99.90;;;;;;5079339;28;20185;-82
2023/03/21 00:27:50;;;;;;;9.97;3.67;;;9.70;99.90;;;;;;5079134;28;20549;-82
2023/03/21 00:30:16;;;;;;;7.43;3.50;;;9.70;99.90;;;;;;5097304;28;20208;-82
2023/03/21 00:32:41;;;;;;;11.50;4.20;;;9.70;99.90;;;;;;5097099;28;20202;-82
2023/03/21 00:35:07;;;;;;;9.43;3.73;;;9.80;99.90;;;;;;5096938;28;20167;-82
2023/03/21 00:37:33;;;;;;;13.27;4.10;;;9.70;99.90;;;;;;5098000;28;20166;-82
2023/03/21 00:39:58;;;;;;;8.80;3.83;;;9.80;99.90;;;;;;5098063;28;20189;-82
2023/03/21 00:42:25;;;;;;;9.13;3.73;;;9.80;99.90;;;;;;5079070;28;20198;-82
2023/03/21 00:44:50;;;;;;;10.30;3.83;;;9.80;99.90;;;;;;5097765;28;20205;-82
2023/03/21 00:47:16;;;;;;;12.23;3.97;;;9.70;99.90;;;;;;5097324;28;20223;-82
2023/03/21 00:49:41;;;;;;;9.37;3.93;;;9.80;99.90;;;;;;5097537;28;20186;-81
2023/03/21 00:52:08;;;;;;;11.97;4.27;;;9.80;99.90;;;;;;5097562;28;20186;-82
2023/03/21 00:54:35;;;;;;;9.13;3.67;;;9.80;99.90;;;;;;5097488;28;20170;-82
2023/03/21 00:57:03;;;;;;;11.17;3.93;;;9.70;99.90;;;;;;5079451;28;20243;-82
2023/03/21 00:59:29;;;;;;;7.23;3.87;;;9.80;99.90;;;;;;5097008;28;20181;-82
2023/03/21 01:01:55;;;;;;;8.60;4.10;;;9.80;99.90;;;;;;5096799;28;20650;-82
2023/03/21 01:04:25;;;;;;;9.00;3.87;;;9.80;99.90;;;;;;5096105;28;20185;-82
2023/03/21 01:06:52;;;;;;;13.40;4.40;;;9.80;99.90;;;;;;5096063;28;20175;-82
2023/03/21 01:09:21;;;;;;;9.53;4.07;;;9.80;99.90;;;;;;5096502;28;20174;-82
2023/03/21 01:11:48;;;;;;;7.50;4.00;;;9.80;99.90;;;;;;5077493;28;20245;-81
2023/03/21 01:14:15;;;;;;;9.93;3.53;;;9.80;99.90;;;;;;5096069;28;20174;-82
2023/03/21 01:16:42;;;;;;;10.40;4.03;;;9.80;99.90;;;;;;5096043;28;20224;-83
2023/03/21 01:19:10;;;;;;;12.03;4.03;;;9.80;99.90;;;;;;5096476;28;20158;-82
2023/03/21 01:21:35;;;;;;;8.93;4.67;;;9.70;99.90;;;;;;5077836;28;20285;-82
2023/03/21 01:24:01;;;;;;;9.53;4.17;;;9.80;99.90;;;;;;5078032;28;20616;-82
2023/03/21 01:26:27;;;;;;;13.57;4.70;;;9.80;99.90;;;;;;5096106;28;20235;-82
2023/03/21 01:28:53;;;;;;;12.77;4.57;;;9.80;99.90;;;;;;5095393;28;20265;-82
2023/03/21 01:31:19;;;;;;;13.90;4.10;;;9.80;99.90;;;;;;5096176;28;20222;-81
2023/03/21 01:33:45;;;;;;;12.03;4.20;;;9.80;99.90;;;;;;5095944;28;20178;-81
2023/03/21 01:36:18;;;;;;;13.10;4.60;;;9.80;99.90;;;;;;5096036;28;20177;-82
2023/03/21 01:38:44;;;;;;;13.97;4.60;;;9.70;99.90;;;;;;5095733;28;20540;-82
2023/03/21 01:41:30;;;;;;;12.00;4.63;;;9.80;99.90;;;;;;5077377;28;20327;-82
2023/03/21 01:43:56;;;;;;;12.80;4.57;;;9.70;99.90;;;;;;5096273;28;20173;-82
2023/03/21 01:46:54;;;;;;;10.10;4.10;;;9.70;99.90;;;;;;5095411;28;20259;-82
2023/03/21 01:49:26;;;;;;;14.83;4.40;;;9.90;99.90;;;;;;5095612;28;20194;-82
2023/03/21 01:51:57;;;;;;;13.27;5.10;;;9.70;99.90;;;;;;5078251;28;20222;-81
2023/03/21 01:54:28;;;;;;;13.40;4.60;;;9.80;99.90;;;;;;5096324;28;20158;-82
2023/03/21 01:56:56;;;;;;;13.27;4.80;;;9.70;99.90;;;;;;5096448;28;20155;-81
2023/03/21 01:59:35;;;;;;;8.50;5.00;;;9.70;99.90;;;;;;5096454;28;20174;-82
2023/03/21 02:02:06;;;;;;;14.00;4.93;;;9.80;99.90;;;;;;5079202;28;20202;-82
2023/03/21 02:04:34;;;;;;;14.10;5.70;;;9.80;99.90;;;;;;5078035;28;20182;-82
2023/03/21 02:07:06;;;;;;;11.27;4.73;;;9.80;99.90;;;;;;5079048;28;20573;-81
2023/03/21 02:09:35;;;;;;;13.57;5.87;;;9.80;99.90;;;;;;5097013;28;20595;-82
2023/03/21 02:12:01;;;;;;;12.00;5.27;;;9.80;99.90;;;;;;5096838;28;20210;-81
2023/03/21 02:14:29;;;;;;;14.77;5.57;;;9.80;99.90;;;;;;5093751;28;20200;-82
2023/03/21 02:17:34;;;;;;;12.23;5.30;;;9.80;99.90;;;;;;5115889;28;20170;-83
2023/03/21 02:20:15;;;;;;;12.20;6.10;;;9.80;99.90;;;;;;5085951;28;20574;-82
2023/03/21 02:22:50;;;;;;;11.53;5.07;;;9.80;99.90;;;;;;5096989;28;20630;-82
2023/03/21 02:25:42;;;;;;;14.97;5.57;;;9.80;99.90;;;;;;5077878;28;20181;-81
2023/03/21 02:28:16;;;;;;;17.83;5.87;;;9.80;99.90;;;;;;5096257;28;20653;-82
2023/03/21 02:31:13;;;;;;;12.97;4.90;;;9.80;99.90;;;;;;5096328;28;20284;-81
2023/03/21 02:33:47;;;;;;;12.50;4.73;;;9.80;99.90;;;;;;5096643;28;20210;-81
2023/03/21 02:36:43;;;;;;;10.20;5.00;;;9.80;99.90;;;;;;5096365;28;20529;-82
2023/03/21 02:39:41;;;;;;;13.23;5.77;;;9.80;99.90;;;;;;5101057;28;20174;-81
2023/03/21 02:42:53;;;;;;;10.67;5.63;;;9.80;99.90;;;;;;5103197;28;20217;-82
2023/03/21 02:45:36;;;;;;;13.07;5.43;;;9.80;99.90;;;;;;5063253;28;20277;-81
2023/03/21 02:48:08;;;;;;;17.03;5.97;;;9.70;99.90;;;;;;5099238;28;20162;-80
2023/03/21 02:50:38;;;;;;;10.77;4.93;;;9.70;99.90;;;;;;5080358;28;20209;-79
2023/03/21 02:53:07;;;;;;;12.77;6.03;;;9.70;99.90;;;;;;5098684;28;20204;-80
2023/03/21 02:55:34;;;;;;;13.63;5.07;;;9.70;99.90;;;;;;5080380;28;20492;-80
2023/03/21 02:58:01;;;;;;;15.20;5.50;;;9.70;99.90;;;;;;5081233;28;20170;-80
2023/03/21 03:00:31;;;;;;;10.57;5.43;;;9.70;99.90;;;;;;5080432;28;20241;-80
2023/03/21 03:02:57;;;;;;;15.27;6.07;;;9.70;99.90;;;;;;5080274;28;20202;-80
2023/03/21 03:05:26;;;;;;;13.00;5.53;;;9.70;99.90;;;;;;5097909;28;20766;-80
2023/03/21 03:08:26;;;;;;;11.83;5.77;;;9.70;99.90;;;;;;5080369;28;20182;-80
2023/03/21 03:11:13;;;;;;;10.57;5.10;;;9.70;99.90;;;;;;5098263;28;20256;-80
2023/03/21 03:14:02;;;;;;;14.17;6.17;;;9.70;99.90;;;;;;5098669;28;20155;-80
2023/03/21 03:17:01;;;;;;;14.13;5.57;;;9.70;99.90;;;;;;5080822;28;20205;-80
2023/03/21 03:19:30;;;;;;;12.63;5.93;;;9.60;99.90;;;;;;5079734;28;20178;-80
2023/03/21 03:22:01;;;;;;;17.43;5.67;;;9.70;99.90;;;;;;5080375;28;20201;-80
2023/03/21 03:24:37;;;;;;;12.20;5.37;;;9.60;99.90;;;;;;5098370;28;20165;-79
2023/03/21 03:27:16;;;;;;;9.73;5.60;;;9.60;99.90;;;;;;5098611;28;20162;-80
2023/03/21 03:29:45;;;;;;;11.67;5.47;;;9.60;99.90;;;;;;5079990;28;20200;-80
2023/03/21 03:32:15;;;;;;;13.20;5.67;;;9.60;99.90;;;;;;5098995;28;20206;-80
2023/03/21 03:34:48;;;;;;;9.57;5.43;;;9.60;99.90;;;;;;5098080;28;20229;-80
2023/03/21 03:37:19;;;;;;;11.37;5.90;;;9.60;99.90;;;;;;5080458;28;20166;-80
2023/03/21 03:39:57;;;;;;;14.17;5.90;;;9.60;99.90;;;;;;5097888;28;20162;-79
2023/03/21 03:42:29;;;;;;;12.73;5.70;;;9.60;99.90;;;;;;5079654;28;20526;-80
2023/03/21 03:44:55;;;;;;;13.87;5.80;;;9.50;99.90;;;;;;5097935;28;20165;-80
2023/03/21 03:47:36;;;;;;;11.60;5.63;;;9.50;99.90;;;;;;5079560;28;20170;-80
2023/03/21 03:50:25;;;;;;;11.97;5.47;;;9.50;99.90;;;;;;5098160;28;20178;-80
2023/03/21 03:52:55;;;;;;;14.83;5.63;;;9.50;99.90;;;;;;5097363;28;20186;-80
2023/03/21 03:55:25;;;;;;;12.17;4.93;;;9.50;99.90;;;;;;5080171;28;20327;-80
2023/03/21 03:57:52;;;;;;;13.37;5.50;;;9.50;99.90;;;;;;5096578;28;20184;-80
2023/03/21 04:00:18;;;;;;;15.13;5.37;;;9.50;99.90;;;;;;5097558;28;20572;-80
2023/03/21 04:02:44;;;;;;;13.90;5.83;;;9.50;99.90;;;;;;5097742;28;20221;-80
2023/03/21 04:05:10;;;;;;;11.10;5.33;;;9.50;99.90;;;;;;5079862;28;20178;-80
2023/03/21 04:07:36;;;;;;;14.27;5.30;;;9.50;99.90;;;;;;5097888;28;20177;-80
2023/03/21 04:10:03;;;;;;;12.17;5.50;;;9.50;99.90;;;;;;5079495;28;20519;-80
2023/03/21 04:12:29;;;;;;;12.97;5.50;;;9.50;99.90;;;;;;5079192;28;20269;-80
2023/03/21 04:14:55;;;;;;;12.60;5.23;;;9.50;99.90;;;;;;5097559;28;20598;-80
2023/03/21 04:17:20;;;;;;;11.80;5.27;;;9.50;99.90;;;;;;5079328;28;20689;-80
2023/03/21 04:19:46;;;;;;;13.07;5.43;;;9.50;99.90;;;;;;5097553;28;20162;-80
2023/03/21 04:22:12;;;;;;;13.93;5.50;;;9.50;99.90;;;;;;5096760;28;20561;-80
2023/03/21 04:24:39;;;;;;;14.17;5.67;;;9.50;99.90;;;;;;5078572;28;20177;-80
2023/03/21 04:27:04;;;;;;;10.93;5.80;;;9.50;99.90;;;;;;5079104;28;20538;-80
2023/03/21 04:29:31;;;;;;;15.93;6.10;;;9.50;99.90;;;;;;5078731;28;20231;-80
2023/03/21 04:31:57;;;;;;;13.77;5.87;;;9.50;99.90;;;;;;5079006;28;20255;-80
2023/03/21 04:34:26;;;;;;;11.73;5.20;;;9.60;99.90;;;;;;5097000;28;20186;-80
2023/03/21 04:36:53;;;;;;;13.57;4.93;;;9.50;99.90;;;;;;5079210;28;20257;-81
2023/03/21 04:39:19;;;;;;;12.67;5.77;;;9.50;99.90;;;;;;5097598;28;20166;-80
2023/03/21 04:41:45;;;;;;;11.13;4.97;;;9.50;99.90;;;;;;5079045;28;20226;-80
2023/03/21 04:44:12;;;;;;;8.30;4.77;;;9.50;99.90;;;;;;5097125;28;20175;-80
2023/03/21 04:46:39;;;;;;;11.50;5.80;;;9.50;99.90;;;;;;5078280;28;20552;-80
2023/03/21 04:49:05;;;;;;;13.53;5.33;;;9.50;99.90;;;;;;5078497;28;20174;-80
2023/03/21 04:51:31;;;;;;;13.03;5.37;;;9.50;99.90;;;;;;5096575;28;20704;-80
2023/03/21 04:53:57;;;;;;;11.90;5.60;;;9.50;99.90;;;;;;5096560;28;20202;-80
2023/03/21 04:56:31;;;;;;;8.33;4.90;;;9.50;99.90;;;;;;5077826;28;20241;-80
2023/03/21 04:59:06;;;;;;;13.43;5.20;;;9.50;99.90;;;;;;5096372;28;20629;-80
2023/03/21 05:01:31;;;;;;;14.70;5.17;;;9.50;99.90;;;;;;5096762;28;20189;-80
2023/03/21 05:03:58;;;;;;;9.53;5.30;;;9.50;99.90;;;;;;5078427;28;20207;-83
2023/03/21 05:06:25;;;;;;;10.60;4.83;;;9.50;99.90;;;;;;5097456;28;20172;-82
2023/03/21 05:08:51;;;;;;;11.60;4.63;;;9.50;99.90;;;;;;5097017;28;20193;-82
2023/03/21 05:11:16;;;;;;;13.10;4.90;;;9.60;99.90;;;;;;5098227;28;20681;-82
2023/03/21 05:13:42;;;;;;;10.33;4.73;;;9.50;99.90;;;;;;5080236;28;20170;-82
2023/03/21 05:16:08;;;;;;;13.00;5.00;;;9.50;99.90;;;;;;5080047;28;20213;-82
2023/03/21 05:18:37;;;;;;;9.87;4.93;;;9.50;99.90;;;;;;5097991;28;20207;-82
2023/03/21 05:21:06;;;;;;;14.07;5.00;;;9.40;99.90;;;;;;5079481;28;20193;-82
2023/03/21 05:23:37;;;;;;;8.00;4.90;;;9.50;99.90;;;;;;5097776;28;20231;-82
2023/03/21 05:26:06;;;;;;;10.20;4.77;;;9.40;99.90;;;;;;5097504;28;20188;-82
2023/03/21 05:28:35;;;;;;;9.77;4.70;;;9.40;99.90;;;;;;5097582;28;20220;-83
2023/03/21 05:31:02;;;;;;;12.87;5.23;;;9.40;99.90;;;;;;5097450;28;20190;-82
2023/03/21 05:33:28;;;;;;;10.30;5.13;;;9.50;99.90;;;;;;5097802;28;20170;-82
2023/03/21 05:35:53;;;;;;;13.00;5.60;;;9.40;99.90;;;;;;5079975;28;20572;-82
2023/03/21 05:38:20;;;;;;;8.37;5.07;;;9.40;99.90;;;;;;5097080;28;20182;-82
2023/03/21 05:40:47;;;;;;;14.07;6.17;;;9.40;99.90;;;;;;5097615;28;20599;-82
2023/03/21 05:43:12;;;;;;;15.30;5.00;;;9.40;99.90;;;;;;5097481;28;20181;-81
2023/03/21 05:45:38;;;;;;;11.07;5.10;;;9.40;99.90;;;;;;5097431;28;20178;-83
2023/03/21 05:48:03;;;;;;;11.40;5.13;;;9.40;99.90;;;;;;5099214;28;20220;-83
2023/03/21 05:50:29;;;;;;;10.83;5.43;;;9.40;99.90;;;;;;5099355;28;20206;-83
2023/03/21 05:52:54;;;;;;;13.93;5.70;;;9.40;99.90;;;;;;5098263;28;20207;-83
2023/03/21 05:55:20;;;;;;;12.30;4.73;;;9.40;99.90;;;;;;5097960;28;20171;-83
2023/03/21 05:57:45;;;;;;;16.40;5.67;;;9.40;99.90;;;;;;5098881;28;20166;-83
2023/03/21 06:00:12;;;;;;;17.60;5.23;;;9.70;99.90;;;;;;5093797;28;20469;-89
2023/03/21 06:02:38;;;;;;;16.20;5.83;;;9.40;99.90;;;;;;5093449;28;20269;-89
2023/03/21 06:05:05;;;;;;;12.07;5.03;;;9.40;99.90;;;;;;5075139;28;20232;-90
2023/03/21 06:07:31;;;;;;;9.27;5.00;;;9.40;99.90;;;;;;5093616;28;20162;-89
2023/03/21 06:09:56;;;;;;;7.57;4.40;;;9.20;99.90;;;;;;5093136;28;20642;-90
2023/03/21 06:12:22;;;;;;;10.87;5.43;;;9.30;99.90;;;;;;5093445;28;20246;-89
2023/03/21 06:14:48;;;;;;;10.13;5.07;;;9.40;99.90;;;;;;5096273;28;20170;-85
2023/03/21 06:17:14;;;;;;;12.03;5.40;;;9.30;99.90;;;;;;5098029;28;20569;-85
2023/03/21 06:19:40;;;;;;;13.13;5.93;;;9.40;99.90;;;;;;5098091;28;20166;-88
2023/03/21 06:22:05;;;;;;;10.33;5.23;;;9.40;99.90;;;;;;5095638;28;20201;-89
2023/03/21 06:24:31;;;;;;;10.00;5.23;;;9.40;99.90;;;;;;5074409;28;20269;-88
2023/03/21 06:26:57;;;;;;;15.97;5.40;;;9.40;99.90;;;;;;5075084;28;20200;-88
2023/03/21 06:29:22;;;;;;;8.90;4.73;;;9.40;99.90;;;;;;5093155;28;20623;-86
2023/03/21 06:31:48;;;;;;;11.67;5.10;;;9.40;99.90;;;;;;5093014;28;20202;-86
2023/03/21 06:34:14;;;;;;;10.13;5.27;;;9.40;99.90;;;;;;5093359;28;20166;-85
2023/03/21 06:36:39;;;;;;;13.43;5.13;;;10.60;99.90;;;;;;5093521;28;20261;-85
2023/03/21 06:39:07;;;;;;;13.87;5.97;;;9.40;99.90;;;;;;5075694;28;20270;-85
2023/03/21 06:41:32;;;;;;;11.87;5.67;;;9.50;99.90;;;;;;5092020;28;20194;-85
2023/03/21 06:43:58;;;;;;;11.30;5.23;;;9.30;99.90;;;;;;5093255;28;20197;-85
2023/03/21 06:46:24;;;;;;;11.30;5.37;;;9.50;99.90;;;;;;5109487;28;20174;-85
2023/03/21 06:48:50;;;;;;;16.07;5.60;;;9.50;99.90;;;;;;5093896;28;20170;-84
2023/03/21 06:51:15;;;;;;;11.53;5.63;;;9.50;99.90;;;;;;5093612;28;20575;-86
2023/03/21 06:53:41;;;;;;;13.03;5.93;;;9.50;99.90;;;;;;5075791;28;20174;-86
2023/03/21 06:56:12;;;;;;;19.90;5.50;;;9.50;99.90;;;;;;5075482;28;20175;-86
2023/03/21 06:58:38;;;;;;;17.60;5.93;;;9.50;99.90;;;;;;5075340;28;20163;-85
2023/03/21 07:01:04;;;;;;;9.97;5.40;;;9.50;99.90;;;;;;5075128;28;20327;-85
2023/03/21 07:03:31;;;;;;;12.67;5.37;;;9.50;99.90;;;;;;5075089;28;20183;-85
2023/03/21 07:05:57;;;;;;;15.13;5.37;;;9.50;99.90;;;;;;5093075;28;20175;-86
2023/03/21 07:08:23;;;;;;;12.50;5.87;;;9.60;99.90;;;;;;5075603;28;20198;-86
2023/03/21 07:10:49;;;;;;;12.73;6.27;;;9.60;99.90;;;;;;5092814;28;20197;-86
2023/03/21 07:13:15;;;;;;;13.27;5.10;;;9.60;99.90;;;;;;5073779;28;20246;-86
2023/03/21 07:15:41;;;;;;;15.90;5.80;;;9.60;99.90;;;;;;5075084;28;20206;-85
2023/03/21 07:18:08;;;;;;;14.47;6.20;;;9.60;99.90;;;;;;5074586;28;20186;-86
2023/03/21 07:20:36;;;;;;;11.73;5.83;;;9.70;99.90;;;;;;5074572;28;20535;-86
2023/03/21 07:23:03;;;;;;;13.53;6.30;;;9.70;99.90;;;;;;5092514;28;20285;-86
2023/03/21 07:25:29;;;;;;;13.33;5.63;;;11.00;99.90;;;;;;5075091;28;20170;-86
2023/03/21 07:27:55;;;;;;;13.30;5.53;;;9.80;99.90;;;;;;5074850;28;20232;-86
2023/03/21 07:30:20;;;;;;;14.87;5.47;;;9.90;99.90;;;;;;5092798;28;20278;-86
2023/03/21 07:32:46;;;;;;;12.57;5.37;;;9.90;99.90;;;;;;5096411;28;20250;-86
2023/03/21 07:35:14;;;;;;;12.90;5.47;;;9.90;99.90;;;;;;5078679;28;20185;-86
2023/03/21 07:37:40;;;;;;;12.80;5.30;;;10.00;99.90;;;;;;5096217;28;20193;-86
2023/03/21 07:40:12;;;;;;;17.37;5.40;;;10.00;99.90;;;;;;5078198;28;20177;-86
2023/03/21 07:42:38;;;;;;;14.70;5.17;;;10.10;99.90;;;;;;5078391;28;20232;-86
2023/03/21 07:45:04;;;;;;;13.40;4.77;;;10.10;99.90;;;;;;5096377;28;20249;-86
2023/03/21 07:47:31;;;;;;;10.33;5.07;;;10.20;99.90;;;;;;5078068;28;20188;-86
2023/03/21 07:49:56;;;;;;;8.67;4.13;;;10.20;99.90;;;;;;5077998;28;20181;-86
2023/03/21 07:52:22;;;;;;;7.83;4.40;;;10.20;99.90;;;;;;5078626;28;20202;-86
2023/03/21 07:54:47;;;;;;;12.00;4.47;;;10.30;99.90;;;;;;5078256;28;20174;-86
2023/03/21 07:57:13;;;;;;;9.83;4.60;;;10.30;99.90;;;;;;5078509;28;20541;-85
2023/03/21 07:59:38;;;;;;;12.50;4.53;;;10.30;99.90;;;;;;5077754;28;20180;-86
2023/03/21 08:02:04;;;;;;;8.80;3.83;;;10.40;99.90;;;;;;5077821;28;20190;-86
2023/03/21 08:04:31;;;;;;;11.90;4.47;;;10.40;99.90;;;;;;5077789;28;20529;-86
2023/03/21 08:06:56;;;;;;;8.20;4.17;;;10.40;99.90;;;;;;5077789;28;20678;-86
2023/03/21 08:09:22;;;;;;;12.17;4.57;;;10.40;99.90;;;;;;5078712;28;20178;-86
2023/03/21 08:11:47;;;;;;;11.23;4.83;;;10.40;99.90;;;;;;5078152;28;20727;-86
2023/03/21 08:14:13;;;;;;;11.60;4.90;;;10.50;99.90;;;;;;5077727;28;20645;-86
2023/03/21 08:16:38;;;;;;;14.73;5.30;;;10.50;99.90;;;;;;5077608;28;20661;-87
2023/03/21 08:19:04;;;;;;;9.10;5.10;;;10.50;99.90;;;;;;5078095;28;20499;-86
2023/03/21 08:21:29;;;;;;;11.70;5.03;;;10.50;99.90;;;;;;5077617;28;20701;-86
2023/03/21 08:23:55;;;;;;;11.17;4.80;;;10.60;99.90;;;;;;5095952;28;20292;-86
2023/03/21 08:26:23;;;;;;;8.63;4.40;;;10.50;99.90;;;;;;5077942;28;20210;-86
2023/03/21 08:28:49;;;;;;;12.90;4.57;;;10.50;99.90;;;;;;5096342;28;20202;-86
2023/03/21 08:31:16;;;;;;;10.93;4.80;;;10.50;99.90;;;;;;5078329;28;20239;-86
2023/03/21 08:33:42;;;;;;;9.10;4.57;;;10.60;99.90;;;;;;5077528;28;20602;-86
2023/03/21 08:36:09;;;;;;;13.80;5.70;;;10.60;99.90;;;;;;5077431;28;20227;-86
2023/03/21 08:38:35;;;;;;;11.83;5.47;;;10.60;99.90;;;;;;5077892;28;20228;-87
2023/03/21 08:41:01;;;;;;;9.83;5.37;;;10.60;99.90;;;;;;5095512;28;20170;-87
2023/03/21 08:43:27;;;;;;;10.30;5.30;;;10.60;99.90;;;;;;5094873;28;20253;-86
2023/03/21 08:45:54;;;;;;;10.83;5.27;;;10.80;99.90;;;;;;5077449;28;20189;-85
2023/03/21 08:48:19;;;;;;;11.47;5.60;;;10.70;99.90;;;;;;5077439;28;20557;-86
2023/03/21 08:50:45;;;;;;;9.50;5.47;;;10.70;99.90;;;;;;5077222;28;20202;-86
2023/03/21 08:53:11;;;;;;;11.90;5.87;;;10.70;99.90;;;;;;5078184;28;20205;-86
2023/03/21 08:55:37;;;;;;;11.50;5.57;;;10.70;99.90;;;;;;5077570;28;20713;-86
2023/03/21 08:58:03;;;;;;;12.00;5.97;;;10.70;99.90;;;;;;5095479;28;20170;-86
2023/03/21 09:00:29;;;;;;;10.00;5.60;;;10.70;99.90;;;;;;5077450;28;20174;-86
2023/03/21 09:02:56;;;;;;;11.03;5.67;;;10.70;99.90;;;;;;5077420;28;20552;-86
2023/03/21 09:05:22;;;;;;;9.77;5.83;;;10.70;99.90;;;;;;5076977;28;20534;-86
2023/03/21 09:07:48;;;;;;;10.73;5.90;;;10.70;99.90;;;;;;5095293;28;20189;-86
2023/03/21 09:10:20;;;;;;;8.97;5.70;;;10.70;99.90;;;;;;5095265;28;20633;-86
2023/03/21 09:12:47;;;;;;;9.00;4.90;;;10.70;99.90;;;;;;5075843;28;20205;-87
2023/03/21 09:15:13;;;;;;;13.53;5.63;;;10.80;99.90;;;;;;5076578;28;20170;-86
2023/03/21 09:17:41;;;;;;;17.67;5.73;;;10.80;99.90;;;;;;5076283;28;20661;-86
2023/03/21 09:20:17;;;;;;;10.30;5.63;;;10.70;99.90;;;;;;5076799;28;20170;-86
2023/03/21 09:22:47;;;;;;;7.37;5.17;;;10.80;99.90;;;;;;5076376;28;20186;-86
2023/03/21 09:25:14;;;;;;;11.13;6.40;;;10.80;99.90;;;;;;5076245;28;20170;-86
2023/03/21 09:27:39;;;;;;;10.30;5.30;;;10.90;99.90;;;;;;5094303;28;20205;-86
2023/03/21 09:30:06;;;;;;;12.57;5.67;;;10.90;99.90;;;;;;5094438;28;20167;-86
2023/03/21 09:32:33;;;;;;;13.47;6.30;;;10.90;99.90;;;;;;5076226;28;20202;-85
2023/03/21 09:34:59;;;;;;;12.93;7.20;;;10.90;99.90;;;;;;5094541;28;20177;-86
2023/03/21 09:37:24;;;;;;;14.67;7.03;;;10.90;99.90;;;;;;5094424;28;20175;-86
2023/03/21 09:39:51;;;;;;;13.80;7.10;;;11.00;99.90;;;;;;5075948;28;20171;-86
2023/03/21 09:42:25;;;;;;;17.03;7.60;;;11.20;99.90;;;;;;5076124;28;20248;-86
2023/03/21 09:45:15;;;;;;;15.47;7.10;;;11.00;99.90;;;;;;5094089;28;20169;-86
2023/03/21 09:47:55;;;;;;;14.07;7.13;;;11.10;99.90;;;;;;5076018;28;20181;-86
2023/03/21 09:50:32;;;;;;;12.77;6.77;;;11.00;99.90;;;;;;5094017;28;20717;-86
2023/03/21 09:53:15;;;;;;;14.67;7.50;;;11.10;99.90;;;;;;5075910;28;20194;-86
2023/03/21 09:55:41;;;;;;;11.70;6.57;;;11.10;99.90;;;;;;5093354;28;20155;-86
2023/03/21 09:58:28;;;;;;;16.20;6.40;;;11.10;99.90;;;;;;5075992;28;20251;-86
2023/03/21 10:01:21;;;;;;;12.43;6.10;;;11.20;99.90;;;;;;5075532;28;20296;-86
2023/03/21 10:03:48;;;;;;;13.87;6.63;;;11.20;99.90;;;;;;5094257;28;20159;-86
2023/03/21 10:06:15;;;;;;;11.80;6.00;;;11.20;99.90;;;;;;5075721;28;20550;-86
2023/03/21 10:08:44;;;;;;;15.67;6.90;;;11.30;99.90;;;;;;5075757;28;20323;-86
2023/03/21 10:11:18;;;;;;;17.57;6.53;;;11.30;99.90;;;;;;5075420;28;20210;-86
2023/03/21 10:13:57;;;;;;;16.30;6.73;;;11.30;99.90;;;;;;5076049;28;20167;-86
2023/03/21 10:17:01;;;;;;;8.90;5.90;;;11.30;99.90;;;;;;5094023;28;20158;-87
2023/03/21 10:19:27;;;;;;;9.63;5.60;;;11.40;99.90;;;;;;5025478;28;20564;-86
2023/03/21 10:21:53;;;;;;;14.17;6.27;;;11.30;99.90;;;;;;5075426;28;20251;-86
2023/03/21 10:24:22;;;;;;;9.80;5.30;;;11.30;99.90;;;;;;5075833;28;20178;-86
2023/03/21 10:26:50;;;;;;;12.87;5.40;;;11.30;99.90;;;;;;5075810;28;20719;-86
2023/03/21 10:29:18;;;;;;;10.57;5.30;;;11.30;99.90;;;;;;5075380;28;20649;-85
2023/03/21 10:31:45;;;;;;;10.47;5.40;;;11.30;99.90;;;;;;5075570;28;20210;-86
2023/03/21 10:34:35;;;;;;;10.70;5.57;;;11.30;99.90;;;;;;5075830;28;20701;-86
2023/03/21 10:37:02;;;;;;;12.33;5.33;;;11.40;99.90;;;;;;5075573;28;20170;-87
2023/03/21 10:39:40;;;;;;;17.03;6.77;;;11.40;99.90;;;;;;5076132;28;20208;-86
2023/03/21 10:42:23;;;;;;;11.40;6.43;;;11.40;99.90;;;;;;5100606;28;20181;-86
2023/03/21 10:44:52;;;;;;;10.77;6.47;;;11.40;99.90;;;;;;5110374;28;20642;-87
2023/03/21 10:47:25;;;;;;;13.00;6.33;;;11.40;99.90;;;;;;5110287;28;20178;-86
2023/03/21 10:49:51;;;;;;;15.37;6.63;;;11.40;99.90;;;;;;5077097;28;20181;-86
2023/03/21 10:52:21;;;;;;;16.93;6.60;;;11.40;99.90;;;;;;5074769;28;20224;-86
2023/03/21 10:54:47;;;;;;;16.57;6.33;;;11.50;99.90;;;;;;5075074;28;20170;-86
2023/03/21 10:57:21;;;;;;;11.53;6.40;;;11.50;99.90;;;;;;5092913;28;20642;-86
2023/03/21 10:59:52;;;;;;;10.57;6.33;;;11.50;99.90;;;;;;5075083;28;20648;-86
2023/03/21 11:02:33;;;;;;;12.93;6.70;;;11.60;99.90;;;;;;5074802;28;20228;-86
2023/03/21 11:05:18;;;;;;;11.87;6.00;;;11.70;99.90;;;;;;5092962;28;20171;-86
2023/03/21 11:07:43;;;;;;;13.57;5.67;;;11.60;99.90;;;;;;5078526;28;20167;-86
2023/03/21 11:10:15;;;;;;;12.63;6.10;;;11.70;99.90;;;;;;5080824;28;20181;-86
2023/03/21 11:12:46;;;;;;;13.20;5.87;;;11.70;99.90;;;;;;5065553;28;20198;-86
2023/03/21 11:15:27;;;;;;;9.63;5.67;;;11.70;99.90;;;;;;5080933;28;20166;-86
2023/03/21 11:17:53;;;;;;;9.23;5.40;;;11.80;99.90;;;;;;5097048;28;20572;-87
2023/03/21 11:20:19;;;;;;;11.40;5.30;;;11.80;99.90;;;;;;5078663;28;20257;-85
2023/03/21 11:22:46;;;;;;;12.67;5.57;;;11.80;99.90;;;;;;5096537;28;20247;-86
2023/03/21 11:25:24;;;;;;;9.83;5.43;;;11.90;99.90;;;;;;5096536;28;20203;-86
2023/03/21 11:27:52;;;;;;;8.13;5.30;;;11.90;99.90;;;;;;5078965;28;20603;-86
2023/03/21 11:30:26;;;;;;;8.53;4.70;;;12.00;99.90;;;;;;5078381;28;20175;-86
2023/03/21 11:32:57;;;;;;;9.00;5.20;;;12.00;99.90;;;;;;5078632;28;20198;-86
2023/03/21 11:35:33;;;;;;;9.93;4.63;;;12.00;99.90;;;;;;5096807;28;20182;-85
2023/03/21 11:37:58;;;;;;;6.47;4.30;;;12.10;99.90;;;;;;5078701;28;20173;-86
2023/03/21 11:40:26;;;;;;;10.20;5.87;;;12.20;99.90;;;;;;5078518;28;20170;-86
2023/03/21 11:42:57;;;;;;;10.10;3.97;;;12.30;99.90;;;;;;5096592;28;20273;-86
2023/03/21 11:45:31;;;;;;;10.00;4.53;;;12.30;99.90;;;;;;5096451;28;20582;-86
2023/03/21 11:47:59;;;;;;;8.10;3.90;;;12.40;99.90;;;;;;5096436;28;20248;-86
2023/03/21 11:50:36;;;;;;;7.17;3.93;;;12.30;99.90;;;;;;5078055;28;20276;-86
2023/03/21 11:53:26;;;;;;;6.90;3.90;;;12.40;99.90;;;;;;5096183;28;20592;-87
2023/03/21 11:55:58;;;;;;;8.13;3.70;;;12.40;99.90;;;;;;5078075;28;20534;-86
2023/03/21 11:58:40;;;;;;;7.13;3.60;;;12.40;99.90;;;;;;5077905;28;20163;-86
2023/03/21 12:01:32;;;;;;;10.90;4.03;;;12.40;99.90;;;;;;5096147;28;20154;-86
2023/03/21 12:04:17;;;;;;;7.77;3.90;;;12.40;99.90;;;;;;5096007;28;20151;-86
2023/03/21 12:07:03;;;;;;;9.63;3.70;;;12.40;99.90;;;;;;5096110;28;20664;-86
2023/03/21 12:09:43;;;;;;;11.23;3.43;;;12.40;99.90;;;;;;5077951;28;20645;-87
2023/03/21 12:12:32;;;;;;;5.57;3.17;;;12.40;99.90;;;;;;5096249;28;20202;-85
2023/03/21 12:15:18;;;;;;;8.60;3.83;;;12.30;99.90;;;;;;5096499;28;20159;-86
2023/03/21 12:18:04;;;;;;;7.27;3.60;;;12.30;99.90;;;;;;5094663;28;20189;-86
2023/03/21 12:20:45;;;;;;;9.03;3.40;;;12.20;99.90;;;;;;5077615;28;20169;-86
2023/03/21 12:23:54;;;;;;;5.40;3.07;;;12.20;99.90;;;;;;5095427;28;20194;-86
2023/03/21 12:26:27;;;;;;;7.73;3.60;;;12.10;99.90;;;;;;5095597;28;20237;-86
2023/03/21 12:29:00;;;;;;;11.03;3.53;;;12.10;99.90;;;;;;5095711;28;20224;-86
2023/03/21 12:31:38;;;;;;;7.43;3.83;;;12.10;99.90;;;;;;5077506;28;20685;-87
2023/03/21 12:34:24;;;;;;;10.80;4.30;;;12.10;99.90;;;;;;5077857;28;20216;-86
2023/03/21 12:36:59;;;;;;;7.33;3.63;;;12.00;99.90;;;;;;5077850;28;20177;-87
2023/03/21 12:39:36;;;;;;;9.10;3.80;;;12.00;99.90;;;;;;5096277;28;20154;-86
2023/03/21 12:42:11;;;;;;;12.97;3.70;;;12.00;99.90;;;;;;5095831;28;20264;-87
2023/03/21 12:44:43;;;;;;;6.10;3.63;;;12.10;99.90;;;;;;5095824;28;20162;-86
2023/03/21 12:47:14;;;;;;;4.07;3.60;;;12.10;99.90;;;;;;5077035;28;20181;-86
2023/03/21 12:49:49;;;;;;;11.70;3.83;;;12.10;99.90;;;;;;5077142;28;20174;-86
2023/03/21 12:52:26;;;;;;;14.67;4.77;;;12.20;99.90;;;;;;5077511;28;20318;-86
2023/03/21 12:55:09;;;;;;;6.27;3.70;;;12.20;99.90;;;;;;5077279;28;20645;-86
2023/03/21 12:57:41;;;;;;;9.13;3.63;;;12.30;99.90;;;;;;5077615;28;20163;-87
2023/03/21 13:00:36;;;;;;;9.33;3.70;;;12.40;99.90;;;;;;5076863;28;20170;-86
2023/03/21 13:03:20;;;;;;;9.20;3.87;;;12.40;99.90;;;;;;5072157;28;20202;-86